Impacts TAF Board
For situational awareness. Not to be used for flight planning purposes.
IDs:

KLAX - Los Angeles Intl, CA, US

Issued at 2115 UTC 18 Dec 2018
Updated at 2314 UTC 18 Dec 2018
Potential Impact None Slight Moderate High
Time2253Z 19/00Z 19/01Z 19/02Z 19/03Z 19/04Z 19/05Z 19/06Z 19/07Z 19/08Z 19/09Z 19/10Z 19/11Z 19/12Z>>
Type OBS PRVL PRVL PRVL PRVL PRVL PRVL PRVL PRVL PRVL PRVL PRVL PRVL PRVL
VIS 10 >6 >6 >6 >6 >6 >6 >6 >6 >6 >6 >6 >6 >6
CIG -- 250 250 250 250 250 -- -- -- -- -- -- -- --
Cover SCT BKN BKN BKN BKN BKN SKC SKC SKC SKC SKC SKC SKC SKC
FltCat VFR VFR VFR VFR VFR VFR VFR VFR VFR VFR VFR VFR VFR VFR
WX -- -- -- -- -- -- -- -- -- -- -- -- -- --
WDir 260 250 250 250 250 250 VRB VRB VRB VRB VRB VRB VRB VRB
WSpd 9 7 7 7 7 7 3 3 3 3 3 3 3 3
WGst -- -- -- -- -- -- -- -- -- -- -- -- -- --
Raw TAF
KLAX 182115Z 1821/1924 25007KT P6SM FEW030 BKN250
  FM190500 VRB03KT P6SM SKC
  FM191400 VRB03KT 5SM BR SKC
  FM191700 26006KT P6SM SKC
  FM192000 26010KT P6SM SKC


Raw METAR
KLAX 182253Z 26009KT 10SM FEW030 SCT200 SCT250 17/13 A3016 RMK AO2 SLP212 T01670128
KLAX 182153Z 26011KT 10SM FEW030 FEW100 SCT160 BKN250 17/12 A3017 RMK AO2 SLP216 T01720122
KLAX 182053Z 25007KT 10SM FEW030 SCT160 BKN250 18/12 A3018 RMK AO2 SLP219 T01780117 58022

METAR Board
Radar Display
Forecast Discussion
For situational awareness. Not to be used for flight planning purposes.